Nur fliegen ist schöner ....

Willkommen beim Flugservice Bautzen GmbH

Wir sind eine nach europäischen Richtlinien zugelassene Flugschule und lizenziertes Luftfahrtunternehmen. Bei uns können sie nicht nur Rundflüge über die Oberlausitz oder Sachsen buchen, sondern in unserer Flugschule selber das Fliegen erlernen. Erfahrene Fluglehrer stehen ihnen dabei zur Seite.

Wir bieten außerdem Businessflüghe sowie Transportleistungen auf dem Luftweg, ganz nach ihren Wünschen, an. Schauen sie sich in Ruhe bei uns um und wenn sie Fragen haben oder weitere Informationen benötigen, scheuen sie sich nicht Kontakt mit uns aufzunehmen.

Rundflüge können sie ganz leicht auch online in unserem Shop buchen.

Terminkalender

Letzter Monat Mai 2017 Nächster Monat
Mo Di Mi Do Fr Sa So
week 18 1 2 3 4 5 6 7
week 19 8 9 10 11 12 13 14
week 20 15 16 17 18 19 20 21
week 21 22 23 24 25 26 27 28
week 22 29 30 31

Flugwetterinfo

[Quelle: ADDS]
METAR
EDDC 221520Z 05005KT 020V110 CAVOK 20/05 Q1019 NOSIG =
TAF
EDDC 221100Z 2212/2312 06008KT CAVOK BECMG 2218/2220 16004KT BECMG 2308/2310 28005KT =
SR / SS: 03:00 / 18:56 UTC (EDAB Flugplatz Bautzen 2017-05-22)

Webcam EDAB

Webcam EDAB
Flugservice Bautzen GmbH, Kornmarkt 34, 02625 Bautzen  Telefon: +49 (3591) 211105, Telefax: +49 (3591) 274512, E-Mail:  flugservice(at)fsbautzen.de